createdAt,value
2022-11-25T00:01:38.905Z,57.13
2022-11-25T00:04:05.631Z,40.03
2022-11-25T00:09:08.310Z,42.03
2022-11-25T00:11:37.165Z,64.10
2022-11-25T00:14:04.851Z,44.70
2022-11-25T00:16:31.746Z,107.90
2022-11-25T00:18:58.966Z,55.13
2022-11-25T00:21:29.287Z,70.05
2022-11-25T00:23:58.145Z,65.28
2022-11-25T00:26:26.687Z,85.97
2022-11-25T00:28:54.399Z,82.38
2022-11-25T00:31:23.865Z,46.25
2022-11-25T00:33:51.096Z,36.88
2022-11-25T00:36:22.215Z,103.43
2022-11-25T00:38:54.067Z,55.38
2022-11-25T00:44:10.561Z,77.47
2022-11-25T00:49:24.293Z,75.18
2022-11-25T00:54:38.496Z,44.15
2022-11-25T00:57:05.661Z,50.72
2022-11-25T00:59:32.412Z,77.78
2022-11-25T01:01:59.694Z,34.50
2022-11-25T01:04:26.455Z,57.53
2022-11-25T01:06:53.214Z,40.00
2022-11-25T01:09:20.416Z,36.30
2022-11-25T01:11:50.236Z,34.42
2022-11-25T01:14:17.652Z,66.55
2022-11-25T01:16:44.452Z,40.80
2022-11-25T01:19:12.364Z,38.20
2022-11-25T01:21:39.512Z,42.10
2022-11-25T01:24:07.137Z,31.23
2022-11-25T01:26:35.160Z,34.88
2022-11-25T01:29:04.748Z,30.98
2022-11-25T01:31:34.382Z,27.73
2022-11-25T01:36:51.560Z,37.65
2022-11-25T01:42:08.460Z,29.33
2022-11-25T01:44:39.277Z,34.10
2022-11-25T01:47:23.166Z,44.53
2022-11-25T01:50:10.646Z,45.47
2022-11-25T01:52:44.217Z,48.27
2022-11-25T01:55:21.476Z,54.67
2022-11-25T02:00:59.871Z,47.28
2022-11-25T02:06:36.102Z,38.95
2022-11-25T02:09:06.619Z,35.58
2022-11-25T02:11:36.675Z,38.03
2022-11-25T02:16:50.589Z,43.60
2022-11-25T02:19:40.330Z,45.33
2022-11-25T02:22:10.241Z,49.00
2022-11-25T02:24:45.778Z,41.08
2022-11-25T02:27:13.208Z,44.97
2022-11-25T02:29:40.767Z,44.80
2022-11-25T02:32:07.580Z,47.53
2022-11-25T02:34:34.872Z,42.60
2022-11-25T02:37:01.803Z,39.08
2022-11-25T02:39:29.069Z,41.60
2022-11-25T02:41:58.536Z,42.40
2022-11-25T02:47:11.925Z,42.43
2022-11-25T02:49:13.035Z,0
2022-11-25T02:49:38.661Z,44.70
2022-11-25T02:52:05.451Z,41.25
2022-11-25T02:57:18.873Z,45.92
2022-11-25T03:02:32.374Z,51.60
2022-11-25T03:07:45.821Z,67.78
2022-11-25T03:10:12.716Z,85.28
2022-11-25T03:12:39.499Z,61.53
2022-11-25T03:15:06.729Z,143.73
2022-11-25T03:17:33.510Z,151.90
2022-11-25T03:20:00.302Z,153.13
2022-11-25T03:22:27.187Z,207.45
2022-11-25T03:24:53.939Z,218.10
2022-11-25T03:27:20.734Z,179.75
2022-11-25T03:29:47.464Z,274.63
2022-11-25T03:32:14.219Z,283.23
2022-11-25T03:34:41.008Z,267.95
2022-11-25T03:37:08.176Z,160.60
2022-11-25T03:39:35.173Z,239.30
2022-11-25T03:42:01.999Z,152.70
2022-11-25T03:44:28.765Z,226.73
2022-11-25T03:46:55.496Z,168.63
2022-11-25T03:49:22.289Z,246.47
2022-11-25T03:51:49.415Z,174.07
2022-11-25T03:54:16.143Z,245.70
2022-11-25T03:56:42.902Z,233.02
2022-11-25T03:59:09.653Z,169.32
2022-11-25T04:01:38.952Z,211.25
2022-11-25T04:04:09.625Z,245.00
2022-11-25T04:06:36.398Z,198.20
2022-11-25T04:09:03.226Z,285.63
2022-11-25T04:11:29.960Z,276.58
2022-11-25T04:13:56.700Z,175.60
2022-11-25T04:16:25.528Z,220.77
2022-11-25T04:18:52.298Z,173.50
2022-11-25T04:21:19.082Z,268.08
2022-11-25T04:23:45.843Z,312.10
2022-11-25T04:28:59.269Z,168.13
2022-11-25T04:34:12.836Z,145.80
2022-11-25T04:39:26.238Z,123.95
2022-11-25T04:43:11.842Z,0
2022-11-25T04:44:39.726Z,148.93
2022-11-25T04:47:06.558Z,142.43
2022-11-25T04:49:33.425Z,115.00
2022-11-25T04:52:00.843Z,141.60
2022-11-25T04:54:27.582Z,115.85
2022-11-25T04:56:54.393Z,135.30
2022-11-25T04:59:21.140Z,153.35
2022-11-25T05:01:47.940Z,129.50
2022-11-25T05:04:14.742Z,128.75
2022-11-25T05:06:41.469Z,155.77
2022-11-25T05:09:08.209Z,123.55
2022-11-25T05:11:34.941Z,285.83
2022-11-25T05:14:01.714Z,92.22
2022-11-25T05:16:28.470Z,170.23
2022-11-25T05:18:58.076Z,87.72
2022-11-25T05:21:24.851Z,162.25
2022-11-25T05:23:55.700Z,131.55
2022-11-25T05:26:22.818Z,137.38
2022-11-25T05:28:49.571Z,167.82
2022-11-25T05:31:16.376Z,158.32
2022-11-25T05:33:43.203Z,167.13
2022-11-25T05:36:10.703Z,130.93
2022-11-25T05:38:37.493Z,154.07
2022-11-25T05:43:53.460Z,152.73
2022-11-25T05:46:20.533Z,110.80
2022-11-25T05:48:47.331Z,150.85
2022-11-25T05:51:14.120Z,129.32
2022-11-25T05:53:40.909Z,91.93
2022-11-25T05:58:56.351Z,115.03
2022-11-25T06:04:11.220Z,148.32
2022-11-25T06:09:24.695Z,164.13
2022-11-25T06:14:18.113Z,110.70
2022-11-25T06:16:10.410Z,0
2022-11-25T06:16:44.852Z,106.95
2022-11-25T06:19:11.644Z,86.40
2022-11-25T06:21:38.363Z,87.87
2022-11-25T06:24:05.392Z,91.68
2022-11-25T06:26:32.141Z,81.80
2022-11-25T06:28:15.069Z,0
2022-11-25T06:28:58.885Z,104.25
2022-11-25T06:34:13.398Z,74.38
2022-11-25T06:36:40.185Z,88.97
2022-11-25T06:39:06.979Z,100.70
2022-11-25T06:41:00.928Z,0
2022-11-25T06:41:33.750Z,98.50
2022-11-25T06:44:00.504Z,81.57
2022-11-25T06:46:26.845Z,0
2022-11-25T06:49:13.943Z,141.40
2022-11-25T06:51:40.698Z,96.55
2022-11-25T06:54:07.445Z,148.20
2022-11-25T06:56:34.513Z,113.05
2022-11-25T06:58:38.095Z,0
2022-11-25T06:59:01.264Z,93.60
2022-11-25T07:01:29.886Z,103.65
2022-11-25T07:06:49.807Z,138.20
2022-11-25T07:12:04.653Z,115.47
2022-11-25T07:14:31.559Z,92.22
2022-11-25T07:16:58.338Z,115.93
2022-11-25T07:19:25.291Z,86.00
2022-11-25T07:24:38.919Z,77.82
2022-11-25T07:30:10.717Z,101.25
2022-11-25T07:31:31.454Z,0
2022-11-25T07:35:25.776Z,84.10
2022-11-25T07:37:52.538Z,99.82
2022-11-25T07:40:19.359Z,65.83
2022-11-25T07:42:46.102Z,113.63
2022-11-25T07:45:12.884Z,71.88
2022-11-25T07:46:28.721Z,0
2022-11-25T07:47:39.605Z,95.87
2022-11-25T07:50:07.068Z,68.07
2022-11-25T07:52:33.880Z,60.30
2022-11-25T07:57:27.326Z,58.30
2022-11-25T07:59:54.101Z,57.63
2022-11-25T08:05:08.008Z,64.07
2022-11-25T08:07:36.694Z,54.70
2022-11-25T08:10:04.273Z,51.10
2022-11-25T08:12:32.596Z,44.83
2022-11-25T08:14:59.310Z,50.28
2022-11-25T08:17:26.048Z,38.70
2022-11-25T08:19:52.794Z,36.85
2022-11-25T08:22:19.562Z,37.63
2022-11-25T08:24:46.404Z,31.50
2022-11-25T08:27:13.157Z,26.17
2022-11-25T08:29:39.910Z,26.33
2022-11-25T08:32:11.583Z,24.50
2022-11-25T08:34:38.776Z,21.42
2022-11-25T08:37:05.519Z,21.63
2022-11-25T08:39:57.376Z,0
2022-11-25T08:40:02.386Z,19.17
2022-11-25T08:42:19.107Z,19.98
2022-11-25T08:44:45.862Z,17.98
2022-11-25T08:47:12.618Z,18.00
2022-11-25T08:49:41.534Z,17.15
2022-11-25T08:52:09.684Z,18.58
2022-11-25T08:54:37.058Z,18.00
2022-11-25T08:57:03.988Z,20.90
2022-11-25T08:59:30.798Z,17.95
2022-11-25T09:01:57.676Z,17.92
2022-11-25T09:04:24.557Z,18.80
2022-11-25T09:06:51.335Z,19.00
2022-11-25T09:09:18.146Z,17.63
2022-11-25T09:11:45.060Z,18.77
2022-11-25T09:14:12.009Z,18.58
2022-11-25T09:16:38.881Z,19.23
2022-11-25T09:19:05.651Z,18.50
2022-11-25T09:21:32.777Z,18.05
2022-11-25T09:23:59.551Z,17.88
2022-11-25T09:26:32.159Z,17.35
2022-11-25T09:28:58.955Z,17.13
2022-11-25T09:31:29.638Z,15.07
2022-11-25T09:33:56.830Z,15.90
2022-11-25T09:36:24.147Z,16.20
2022-11-25T09:38:51.766Z,15.80
2022-11-25T09:41:47.735Z,15.65
2022-11-25T09:44:37.282Z,14.27
2022-11-25T09:47:47.050Z,16.10
2022-11-25T09:50:14.997Z,18.10
2022-11-25T09:53:09.314Z,16.13
2022-11-25T09:55:44.474Z,15.85
2022-11-25T09:58:38.627Z,17.83
2022-11-25T10:04:13.497Z,22.17
2022-11-25T10:06:55.656Z,20.67
2022-11-25T10:09:28.961Z,22.90
2022-11-25T10:12:00.843Z,22.23
2022-11-25T10:14:39.363Z,22.17
2022-11-25T10:17:30.998Z,27.52
2022-11-25T10:20:05.097Z,27.83
2022-11-25T10:22:37.356Z,25.77
2022-11-25T10:24:42.552Z,0
2022-11-25T10:25:27.726Z,27.05
2022-11-25T10:30:27.484Z,29.98
2022-11-25T10:33:18.986Z,29.63
2022-11-25T10:35:51.764Z,26.70
2022-11-25T10:38:32.832Z,26.15
2022-11-25T10:41:00.674Z,28.42
2022-11-25T10:43:31.788Z,27.40
2022-11-25T10:46:16.847Z,26.97
2022-11-25T10:47:17.865Z,0
2022-11-25T10:49:19.312Z,28.65
2022-11-25T10:51:50.890Z,26.95
2022-11-25T10:54:39.260Z,29.02
2022-11-25T10:57:27.722Z,28.13
2022-11-25T11:02:44.293Z,27.42
2022-11-25T11:05:11.055Z,24.73
2022-11-25T11:07:43.462Z,30.15
2022-11-25T11:10:13.153Z,23.70
2022-11-25T11:12:50.180Z,26.00
2022-11-25T11:15:26.337Z,25.17
2022-11-25T11:20:51.496Z,25.83
2022-11-25T11:23:18.769Z,23.20
2022-11-25T11:25:56.935Z,25.70
2022-11-25T11:28:44.596Z,24.35
2022-11-25T11:31:20.297Z,20.25
2022-11-25T11:36:51.620Z,28.08
2022-11-25T11:39:33.210Z,23.10
2022-11-25T11:42:05.568Z,22.75
2022-11-25T11:44:56.935Z,23.17
2022-11-25T11:47:44.500Z,20.45
2022-11-25T11:50:25.499Z,21.20
2022-11-25T11:52:52.204Z,21.50
2022-11-25T11:56:26.751Z,25.75
2022-11-25T11:56:38.119Z,0
2022-11-25T11:59:04.703Z,24.33
2022-11-25T12:01:40.047Z,20.48
2022-11-25T12:04:20.038Z,20.13
2022-11-25T12:07:05.832Z,22.38
2022-11-25T12:09:37.173Z,23.63
2022-11-25T12:12:09.379Z,21.02
2022-11-25T12:14:42.324Z,23.77
2022-11-25T12:17:29.861Z,23.83
2022-11-25T12:19:58.581Z,21.73
2022-11-25T12:22:42.338Z,20.33
2022-11-25T12:25:18.310Z,21.13
2022-11-25T12:28:08.265Z,23.30
2022-11-25T12:30:58.334Z,22.70
2022-11-25T12:33:56.908Z,20.25
2022-11-25T12:36:39.263Z,22.88
2022-11-25T12:39:05.949Z,20.30
2022-11-25T12:41:53.809Z,20.90
2022-11-25T12:44:24.013Z,21.90
2022-11-25T12:46:54.466Z,21.63
2022-11-25T12:49:23.048Z,23.10
2022-11-25T12:51:55.813Z,22.65
2022-11-25T12:54:40.647Z,22.97
2022-11-25T12:57:48.969Z,24.77
2022-11-25T13:00:42.264Z,24.77
2022-11-25T13:00:44.972Z,0
2022-11-25T13:03:36.657Z,26.80
2022-11-25T13:05:42.622Z,0
2022-11-25T13:06:31.267Z,24.00
2022-11-25T13:09:10.055Z,22.35
2022-11-25T13:11:46.033Z,24.20
2022-11-25T13:13:23.304Z,0
2022-11-25T13:14:54.399Z,26.83
2022-11-25T13:17:23.065Z,23.88
2022-11-25T13:19:49.989Z,26.85
2022-11-25T13:22:26.582Z,27.63
2022-11-25T13:24:53.589Z,25.10
2022-11-25T13:27:33.098Z,23.83
2022-11-25T13:30:01.532Z,25.60
2022-11-25T13:32:28.254Z,25.90
2022-11-25T13:35:22.960Z,25.70
2022-11-25T13:40:38.869Z,26.03
2022-11-25T13:43:19.721Z,27.23
2022-11-25T13:45:46.670Z,28.50
2022-11-25T13:51:14.011Z,0
2022-11-25T13:51:24.378Z,30.20
2022-11-25T13:54:05.551Z,30.63
2022-11-25T13:56:36.853Z,28.27
2022-11-25T13:59:12.821Z,29.85
2022-11-25T14:04:56.267Z,38.65
2022-11-25T14:07:35.266Z,29.00
2022-11-25T14:19:53.109Z,30.55
2022-11-25T14:19:54.583Z,0
2022-11-25T14:22:28.464Z,35.10
2022-11-25T14:25:23.771Z,40.20
2022-11-25T14:26:52.437Z,0
2022-11-25T14:28:02.371Z,37.03
2022-11-25T14:30:31.457Z,33.65
2022-11-25T14:33:09.642Z,39.10
2022-11-25T14:35:48.641Z,35.83
2022-11-25T14:38:20.673Z,35.97
2022-11-25T14:40:55.516Z,37.95
2022-11-25T14:41:53.218Z,0
2022-11-25T14:43:26.602Z,36.92
2022-11-25T14:46:19.905Z,33.85
2022-11-25T14:48:54.972Z,32.70
2022-11-25T14:50:38.162Z,0
2022-11-25T14:51:23.076Z,39.08
2022-11-25T14:56:38.258Z,36.25
2022-11-25T15:01:55.698Z,32.85
2022-11-25T15:07:31.285Z,34.95
2022-11-25T15:09:58.309Z,33.40
2022-11-25T15:12:30.645Z,35.95
2022-11-25T15:14:57.902Z,42.25
2022-11-25T15:17:29.617Z,45.53
2022-11-25T15:20:01.339Z,38.75
2022-11-25T15:25:16.546Z,37.70
2022-11-25T15:30:32.287Z,37.80
2022-11-25T15:35:47.876Z,37.30
2022-11-25T15:38:34.898Z,34.15
2022-11-25T15:41:02.513Z,37.72
2022-11-25T15:46:18.217Z,39.67
2022-11-25T15:51:33.455Z,36.87
2022-11-25T15:56:51.758Z,40.75
2022-11-25T15:59:41.906Z,38.10
2022-11-25T16:02:35.024Z,34.42
2022-11-25T16:05:13.899Z,37.95
2022-11-25T16:07:49.743Z,39.15
2022-11-25T16:10:25.054Z,38.53
2022-11-25T16:13:22.041Z,37.67
2022-11-25T16:18:43.426Z,0
2022-11-25T16:19:02.840Z,35.70
2022-11-25T16:21:36.889Z,34.00
2022-11-25T16:27:01.012Z,31.43
2022-11-25T16:29:39.996Z,30.98
2022-11-25T16:32:15.366Z,32.30
2022-11-25T16:34:42.957Z,26.38
2022-11-25T16:37:09.825Z,33.42
2022-11-25T16:39:37.649Z,29.77
2022-11-25T16:44:52.766Z,29.77
2022-11-25T16:47:21.267Z,30.70
2022-11-25T16:49:48.229Z,27.30
2022-11-25T16:52:15.044Z,26.35
2022-11-25T16:54:41.861Z,34.53
2022-11-25T16:57:16.885Z,28.75
2022-11-25T16:59:44.720Z,28.23
2022-11-25T17:02:18.480Z,28.17
2022-11-25T17:04:46.189Z,27.38
2022-11-25T17:07:32.203Z,29.52
2022-11-25T17:09:59.832Z,30.08
2022-11-25T17:12:31.530Z,30.77
2022-11-25T17:17:47.893Z,30.17
2022-11-25T17:20:16.957Z,27.35
2022-11-25T17:22:43.813Z,30.23
2022-11-25T17:25:12.173Z,26.83
2022-11-25T17:27:39.776Z,29.42
2022-11-25T17:30:23.145Z,31.80
2022-11-25T17:32:58.016Z,32.15
2022-11-25T17:35:24.913Z,42.60
2022-11-25T17:37:51.691Z,41.10
2022-11-25T17:40:18.621Z,33.05
2022-11-25T17:42:47.098Z,31.13
2022-11-25T17:45:16.133Z,32.97
2022-11-25T17:47:43.233Z,36.13
2022-11-25T17:50:22.779Z,43.95
2022-11-25T17:52:50.200Z,38.17
2022-11-25T17:55:17.799Z,35.43
2022-11-25T17:57:44.643Z,45.67
2022-11-25T18:00:17.919Z,50.35
2022-11-25T18:05:31.332Z,53.90
2022-11-25T18:07:58.135Z,59.30
2022-11-25T18:10:27.297Z,56.87
2022-11-25T18:12:56.134Z,73.97
2022-11-25T18:18:21.439Z,145.90
2022-11-25T18:20:48.305Z,63.42
2022-11-25T18:23:15.104Z,73.97
2022-11-25T18:25:42.156Z,114.75
2022-11-25T18:28:21.733Z,96.37
2022-11-25T18:30:49.385Z,63.83
2022-11-25T18:36:05.176Z,62.80
2022-11-25T18:38:31.978Z,80.68
2022-11-25T18:40:58.687Z,56.85
2022-11-25T18:43:27.419Z,62.08
2022-11-25T18:48:41.136Z,70.40
2022-11-25T18:53:58.919Z,100.63
2022-11-25T18:56:25.706Z,93.57
2022-11-25T18:58:52.451Z,94.53
2022-11-25T19:01:21.627Z,70.50
2022-11-25T19:06:35.092Z,91.03
2022-11-25T19:09:01.854Z,82.13
2022-11-25T19:10:16.033Z,0
2022-11-25T19:11:31.941Z,76.85
2022-11-25T19:14:03.934Z,73.82
2022-11-25T19:16:30.800Z,72.93
2022-11-25T19:18:57.781Z,69.85
2022-11-25T19:21:24.531Z,85.00
2022-11-25T19:23:03.793Z,0
2022-11-25T19:23:51.289Z,154.60
2022-11-25T19:26:23.226Z,100.00
2022-11-25T19:28:54.981Z,95.40
2022-11-25T19:31:22.118Z,115.57
2022-11-25T19:33:50.915Z,67.55
2022-11-25T19:36:24.380Z,70.25
2022-11-25T19:38:51.698Z,91.45
2022-11-25T19:41:18.769Z,67.43
2022-11-25T19:43:45.702Z,139.77
2022-11-25T19:46:32.981Z,91.17
2022-11-25T19:49:05.938Z,76.90
2022-11-25T19:51:34.713Z,69.82
2022-11-25T19:54:01.442Z,62.67
2022-11-25T19:56:28.185Z,55.90
2022-11-25T19:58:55.197Z,69.07
2022-11-25T20:01:27.947Z,63.00
2022-11-25T20:03:54.833Z,58.60
2022-11-25T20:06:23.174Z,61.28
2022-11-25T20:08:49.934Z,56.90
2022-11-25T20:11:19.081Z,79.50
2022-11-25T20:13:46.866Z,76.88
2022-11-25T20:16:28.528Z,210.18
2022-11-25T20:18:55.404Z,142.35
2022-11-25T20:21:28.260Z,72.18
2022-11-25T20:23:55.380Z,72.78
2022-11-25T20:26:27.523Z,68.28
2022-11-25T20:28:54.304Z,76.57
2022-11-25T20:31:22.109Z,71.03
2022-11-25T20:33:49.148Z,105.47
2022-11-25T20:36:18.996Z,64.65
2022-11-25T20:38:51.705Z,65.18
2022-11-25T20:44:05.647Z,67.40
2022-11-25T20:46:32.388Z,67.03
2022-11-25T20:49:02.065Z,66.18
2022-11-25T20:51:28.956Z,79.78
2022-11-25T20:56:44.514Z,78.78
2022-11-25T20:59:23.774Z,142.98
2022-11-25T21:01:51.452Z,65.00
2022-11-25T21:04:18.328Z,61.20
2022-11-25T21:06:45.161Z,71.68
2022-11-25T21:09:20.835Z,65.30
2022-11-25T21:11:48.119Z,87.23
2022-11-25T21:14:17.314Z,205.32
2022-11-25T21:16:44.538Z,65.70
2022-11-25T21:19:11.396Z,73.30
2022-11-25T21:21:40.990Z,67.17
2022-11-25T21:26:58.943Z,61.95
2022-11-25T21:29:27.209Z,58.97
2022-11-25T21:34:40.937Z,65.43
2022-11-25T21:39:58.441Z,65.30
2022-11-25T21:45:17.267Z,100.38
2022-11-25T21:50:30.673Z,65.70
2022-11-25T21:55:44.680Z,62.22
2022-11-25T21:58:29.364Z,63.90
2022-11-25T22:00:58.796Z,67.78
2022-11-25T22:06:26.460Z,71.95
2022-11-25T22:08:53.638Z,81.68
2022-11-25T22:11:26.204Z,74.65
2022-11-25T22:13:53.037Z,84.15
2022-11-25T22:16:27.957Z,63.15
2022-11-25T22:18:55.103Z,113.00
2022-11-25T22:21:21.870Z,66.53
2022-11-25T22:23:48.942Z,61.25
2022-11-25T22:26:34.088Z,71.60
2022-11-25T22:29:01.931Z,77.75
2022-11-25T22:31:29.026Z,68.30
2022-11-25T22:33:56.026Z,59.40
2022-11-25T22:36:43.230Z,68.90
2022-11-25T22:42:07.580Z,88.53
2022-11-25T22:44:43.993Z,65.07
2022-11-25T22:47:17.993Z,72.43
2022-11-25T22:52:35.939Z,71.10
2022-11-25T22:55:19.387Z,72.80
2022-11-25T22:57:47.216Z,66.22
2022-11-25T23:00:30.861Z,88.63
2022-11-25T23:02:59.325Z,66.80
2022-11-25T23:05:33.510Z,65.32
2022-11-25T23:08:13.138Z,73.13
2022-11-25T23:10:40.356Z,70.18
2022-11-25T23:13:07.227Z,65.45
2022-11-25T23:15:34.497Z,94.35
2022-11-25T23:18:03.710Z,81.35
2022-11-25T23:20:32.208Z,78.45
2022-11-25T23:23:07.235Z,86.00
2022-11-25T23:28:20.749Z,93.20
2022-11-25T23:33:41.900Z,104.80
2022-11-25T23:36:09.161Z,87.60
2022-11-25T23:38:41.446Z,85.13
2022-11-25T23:41:18.894Z,114.95
2022-11-25T23:43:45.673Z,93.65
2022-11-25T23:46:17.401Z,102.22
2022-11-25T23:51:36.341Z,92.13
2022-11-25T23:56:49.953Z,75.40
2022-11-25T23:59:17.448Z,85.57
